Latest Weather Observations for Friendly Beaches

IDT60801

Issued at 7:35 pm EST Wednesday 23 April 2014 (issued every 30 minutes, with the page automatically refreshed every 10 minutes)

About weather observations | Map of weather stations | Latest weather observations for TAS | Other Formats
Station Details ID: 092114 Name: FRIENDLY BEACHES Lat: -42.00 Lon: 148.28 Height: 55.0 m
Data from the previous 72 hours. | See also: Recent months at Friendly Beaches
Date/Time
EST
Temp
°C
App
Temp
°C
Dew
Point
Rel
Hum
%
Delta-T
°C
Wind Press
QNH
hPa
Press
MSL
hPa
Rain
since 9 am
mm
Dir
 
Spd
km/h
Gust
km/h
Spd
kts
Gust
kts
23/07:30pm 13.5 10.6 6.6 63 3.3 N 11 17 6 9 1009.2 - 0.0
23/07:00pm 14.2 10.7 7.0 62 3.5 N 15 22 8 12 1009.4 1009.4 0.0
23/06:30pm 14.4 11.5 6.3 58 3.9 NNW 11 17 6 9 1009.5 - 0.0
23/06:00pm 14.4 11.7 5.7 56 4.1 NNW 9 20 5 11 1009.6 1009.6 0.0
23/05:30pm 14.4 12.1 5.7 56 4.1 NNW 7 15 4 8 1009.6 - 0.0
23/05:00pm 15.5 13.2 5.7 52 4.7 NNW 7 15 4 8 1009.6 1009.6 0.0
23/04:30pm 15.6 12.9 5.8 52 4.7 NNW 9 17 5 9 1009.9 - 0.0
23/04:00pm 15.9 13.6 5.8 51 4.9 NW 7 13 4 7 1010.1 1010.1 0.0
23/03:30pm 16.4 13.3 5.4 48 5.3 WNW 11 22 6 12 1010.1 - 0.0
23/03:00pm 16.9 12.1 4.9 45 5.7 WNW 19 33 10 18 1010.2 1010.2 0.0
23/02:30pm 17.4 13.6 4.0 41 6.3 WNW 13 26 7 14 1010.3 - 0.0
23/02:00pm 18.2 15.8 4.4 40 6.6 W 6 17 3 9 1010.7 1010.7 0.0
23/01:30pm 18.4 15.6 8.7 53 5.0 NNE 13 24 7 13 1011.0 - 0.0
23/01:00pm 18.3 14.1 7.4 49 5.5 NNE 19 30 10 16 1011.4 1011.4 0.0
23/12:30pm 18.7 15.6 7.2 47 5.8 NNE 13 24 7 13 1011.7 - 0.0
23/12:00pm 17.6 14.0 8.2 54 4.8 NNE 17 26 9 14 1012.5 1012.5 0.0
23/11:30am 18.1 14.2 7.2 49 5.5 NNE 17 22 9 12 1013.0 - 0.0
23/11:00am 18.1 15.5 6.0 45 6.0 N 9 19 5 10 1013.5 1013.5 0.0
23/10:30am 16.6 14.1 4.6 45 5.7 WNW 7 15 4 8 1013.9 - 0.0
23/10:00am 16.7 14.1 4.4 44 5.8 WNW 7 11 4 6 1014.3 1014.3 0.0
23/09:30am 15.2 12.7 4.9 50 4.8 WNW 7 13 4 7 1014.5 - 0.0
23/09:00am 13.5 11.7 5.2 57 3.9 W 4 7 2 4 1014.6 1014.6 0.0
23/08:30am 12.7 10.5 5.4 61 3.4 WNW 6 11 3 6 1014.7 - 0.0
23/08:00am 11.1 8.7 5.2 67 2.7 NW 7 11 4 6 1014.7 1014.7 0.0
23/07:30am 10.1 7.2 4.7 69 2.4 WNW 9 13 5 7 1014.5 - 0.0
23/07:00am 9.7 6.8 4.7 71 2.2 W 9 11 5 6 1014.4 1014.4 0.0
23/06:30am 9.8 6.5 4.8 71 2.2 WNW 11 17 6 9 1014.3 - 0.0
23/06:00am 9.5 6.7 5.1 74 2.0 W 9 13 5 7 1014.3 1014.3 0.0
23/05:30am 9.6 6.1 5.4 75 1.9 WNW 13 20 7 11 1014.4 - 0.0
23/05:00am 9.1 6.0 5.5 78 1.6 W 11 17 6 9 1014.0 1014.0 0.0
23/04:30am 8.8 6.0 5.0 77 1.7 W 9 13 5 7 1014.1 - 0.0
23/04:00am 9.3 6.1 4.9 74 2.0 W 11 13 6 7 1014.0 1014.0 0.0
23/03:30am 9.9 6.3 5.1 72 2.2 W 13 20 7 11 1013.8 - 0.0
23/03:00am 10.4 6.4 5.0 69 2.4 W 15 22 8 12 1013.8 1013.8 0.0
23/02:30am 10.8 6.8 4.7 66 2.8 W 15 24 8 13 1013.8 - 0.0
23/02:00am 10.7 5.8 4.2 64 2.9 W 19 28 10 15 1013.9 1013.9 0.0
23/01:30am 9.5 6.0 3.5 66 2.6 W 11 15 6 8 1014.3 - 0.0
23/01:00am 10.0 6.5 3.5 64 2.8 WSW 11 17 6 9 1014.3 1014.3 0.0
23/12:30am 9.3 6.7 3.3 66 2.6 W 6 7 3 4 1014.5 - 0.0
23/12:00am 9.3 7.1 3.1 65 2.7 W 4 6 2 3 1014.2 1014.2 0.0
 
Date/Time
EST
Temp
°C
App
Temp
°C
Dew
Point
Rel
Hum
%
Delta-T
°C
Wind Press
QNH
hPa
Press
MSL
hPa
Rain
since 9 am
mm
Dir
 
Spd
km/h
Gust
km/h
Spd
kts
Gust
kts
22/11:30pm 9.9 7.3 3.0 62 3.0 W 6 7 3 4 1014.2 - 0.0
22/11:00pm 9.7 7.8 2.6 61 3.0 N 2 4 1 2 1014.1 1014.1 0.0
22/10:30pm 9.6 7.3 2.9 63 2.9 N 4 7 2 4 1014.0 - 0.0
22/10:00pm 10.5 7.9 3.1 60 3.2 W 6 7 3 4 1013.6 1013.6 0.0
22/09:30pm 11.1 8.4 2.9 57 3.6 WSW 6 9 3 5 1013.1 - 0.0
22/09:00pm 11.7 8.9 2.2 52 4.1 W 6 7 3 4 1012.8 1012.8 0.0
22/08:30pm 12.0 9.0 2.2 51 4.2 WSW 7 9 4 5 1012.5 - 0.0
22/08:00pm 12.3 9.3 2.2 50 4.4 W 7 11 4 6 1012.2 1012.2 0.0
22/07:30pm 12.6 9.7 4.8 59 3.6 W 9 13 5 7 1011.9 - 0.0
22/07:00pm 13.5 10.9 5.9 60 3.6 WSW 9 13 5 7 1011.6 1011.6 0.0
22/06:30pm 14.5 12.2 4.8 52 4.5 W 6 7 3 4 1011.0 - 0.0
22/06:00pm 15.4 12.1 4.8 49 5.0 WSW 11 17 6 9 1010.1 1010.1 0.0
22/05:30pm 16.0 12.5 5.3 49 5.1 SW 13 24 7 13 1009.4 - 0.0
22/05:00pm 17.1 14.0 5.7 47 5.5 SW 11 20 6 11 1008.9 1008.9 0.0
22/04:30pm 17.7 15.7 6.9 49 5.4 SW 7 13 4 7 1008.5 - 0.0
22/04:00pm 18.3 15.2 7.1 48 5.7 SSW 13 22 7 12 1007.9 1007.8 0.0
22/03:30pm 19.6 16.8 7.0 44 6.4 W 11 20 6 11 1007.5 - 0.0
22/03:00pm 20.1 17.2 8.1 46 6.2 W 13 20 7 11 1007.1 1007.0 0.0
22/02:30pm 21.8 19.4 8.7 43 6.9 WNW 11 22 6 12 1006.9 - 0.0
22/02:00pm 21.3 18.0 7.9 42 7.0 WNW 15 26 8 14 1006.7 1006.6 0.0
22/01:30pm 20.1 16.0 7.8 45 6.4 W 19 35 10 19 1006.8 - 0.0
22/01:00pm 20.7 16.5 7.3 42 6.9 WNW 19 33 10 18 1006.7 1006.6 0.0
22/12:30pm 21.1 17.8 8.0 43 6.8 W 15 24 8 13 1006.8 - 0.0
22/12:00pm 19.6 17.4 9.2 51 5.5 WNW 11 22 6 12 1006.9 1006.8 0.0
22/11:30am 20.1 17.7 9.9 52 5.5 WNW 13 33 7 18 1006.9 - 0.0
22/11:00am 18.1 15.4 10.2 60 4.2 WNW 15 26 8 14 1007.1 1007.0 0.0
22/10:30am 18.0 15.2 10.1 60 4.2 WNW 15 26 8 14 1006.7 - 0.0
22/10:00am 17.9 16.9 11.0 64 3.7 WNW 7 17 4 9 1006.5 1006.4 0.0
22/09:30am 17.8 16.2 11.4 66 3.5 WNW 11 22 6 12 1006.7 - 0.0
22/09:00am 17.6 16.1 10.7 64 3.7 WNW 9 20 5 11 1006.7 1006.6 0.6
22/08:30am 16.9 16.4 10.7 67 3.3 NNW 4 13 2 7 1006.2 - 0.6
22/08:00am 17.2 16.6 10.3 64 3.7 NW 4 7 2 4 1006.4 1006.3 0.6
22/07:30am 16.8 16.4 11.1 69 3.1 NNW 4 9 2 5 1006.0 - 0.6
22/07:00am 17.2 16.1 10.8 66 3.5 NNE 7 17 4 9 1005.4 1005.3 0.6
22/06:30am 18.0 16.1 10.6 62 4.0 N 11 19 6 10 1005.3 - 0.6
22/06:00am 18.4 15.1 10.8 61 4.1 NW 19 41 10 22 1005.3 1005.2 0.6
22/05:30am 18.2 14.9 11.0 63 3.9 NNW 19 35 10 19 1005.4 - 0.6
22/05:00am 17.9 15.4 11.0 64 3.7 NNW 15 41 8 22 1005.4 1005.3 0.6
22/04:30am 18.1 15.9 10.7 62 4.0 NNW 13 26 7 14 1005.3 - 0.6
22/04:00am 17.6 15.4 10.7 64 3.7 N 13 19 7 10 1005.4 1005.3 0.6
22/03:30am 17.6 15.1 10.9 65 3.6 NNW 15 30 8 16 1005.4 - 0.6
22/03:00am 16.3 14.0 11.7 74 2.5 NNW 15 26 8 14 1005.7 1005.6 0.6
22/02:30am 15.2 13.0 12.2 82 1.6 N 15 24 8 13 1006.0 - 0.6
22/02:00am 15.2 11.4 12.3 83 1.6 N 24 37 13 20 1006.3 1006.2 0.6
22/01:30am 14.7 11.5 11.8 83 1.6 N 20 33 11 18 1007.0 - 0.6
22/01:00am 14.4 12.4 11.4 82 1.6 N 13 26 7 14 1007.5 1007.4 0.6
22/12:30am 14.3 11.4 10.9 80 1.8 N 17 37 9 20 1007.8 - 0.6
22/12:00am 14.6 10.6 10.6 77 2.1 N 22 37 12 20 1008.3 1008.3 0.6
 
Date/Time
EST
Temp
°C
App
Temp
°C
Dew
Point
Rel
Hum
%
Delta-T
°C
Wind Press
QNH
hPa
Press
MSL
hPa
Rain
since 9 am
mm
Dir
 
Spd
km/h
Gust
km/h
Spd
kts
Gust
kts
21/11:30pm 14.5 11.6 10.9 79 1.9 N 17 33 9 18 1009.1 - 0.6
21/11:00pm 14.4 11.4 10.8 79 1.9 N 17 32 9 17 1009.7 1009.7 0.6
21/10:30pm 14.2 10.9 11.0 81 1.7 N 19 28 10 15 1010.6 - 0.6
21/10:00pm 13.8 10.3 11.0 83 1.5 N 20 32 11 17 1011.2 1011.2 0.6
21/09:30pm 13.7 10.2 10.9 83 1.5 N 20 32 11 17 1011.7 - 0.6
21/09:00pm 13.1 9.4 11.5 90 0.9 N 22 37 12 20 1011.4 1011.4 0.6
21/08:30pm 13.5 9.7 11.2 86 1.2 N 22 32 12 17 1012.1 - 0.6
21/08:00pm 13.0 9.7 11.6 91 0.7 N 20 33 11 18 1012.0 1012.0 0.6
21/07:30pm 12.6 9.4 11.2 91 0.7 N 19 30 10 16 1012.3 - 0.6
21/07:00pm 13.6 9.6 10.4 81 1.7 N 22 35 12 19 1012.5 1012.5 0.0
21/06:30pm 13.0 10.6 10.2 83 1.4 N 13 24 7 13 1012.6 - 0.0
21/06:00pm 12.9 10.6 10.6 86 1.2 N 13 22 7 12 1012.9 1012.9 0.0
21/05:30pm 12.4 10.4 10.0 85 1.2 N 11 17 6 9 1013.4 - 0.0
21/05:00pm 12.4 9.1 9.4 82 1.5 NNE 17 28 9 15 1013.7 1013.7 0.0
21/04:30pm 13.1 10.1 9.4 78 1.9 NNE 15 22 8 12 1013.9 - 0.0
21/04:00pm 13.9 11.4 9.7 76 2.2 NNE 13 22 7 12 1014.3 1014.3 0.0
21/03:30pm 12.7 9.9 8.4 75 2.1 NNE 13 22 7 12 1014.5 - 0.0
21/03:00pm 12.8 9.8 7.9 72 2.4 NNE 13 20 7 11 1015.0 1015.0 0.0
21/02:30pm 13.4 10.5 8.0 70 2.7 NNE 13 22 7 12 1015.4 - 0.0
21/02:00pm 13.5 10.9 7.9 69 2.8 NNE 11 19 6 10 1015.7 1015.7 0.0
21/01:30pm 13.4 9.8 6.7 64 3.2 N 15 24 8 13 1016.1 - 0.0
21/01:00pm 14.0 10.3 6.1 59 3.8 NNE 15 26 8 14 1016.4 1016.4 0.0
21/12:30pm 14.0 10.5 5.6 57 4.0 NE 13 20 7 11 1017.0 - 0.0
21/12:00pm 13.9 10.9 5.8 58 3.8 NNE 11 20 6 11 1017.4 1017.4 0.0
21/11:30am 13.7 10.4 4.6 54 4.2 NNE 11 17 6 9 1017.9 - 0.0
21/11:00am 13.7 10.8 4.8 55 4.1 NE 9 15 5 8 1018.2 1018.2 0.0
21/10:30am 14.0 11.3 3.8 50 4.6 ENE 7 13 4 7 1018.3 - 0.0
21/10:00am 13.2 10.5 2.7 49 4.6 ENE 6 7 3 4 1018.8 1018.8 0.0
21/09:30am 11.4 8.7 2.4 54 3.9 W 6 7 3 4 1018.9 - 0.0
21/09:00am 9.9 7.1 1.8 57 3.4 WNW 6 7 3 4 1018.9 1018.9 0.0
21/08:30am 8.8 5.8 1.9 62 2.9 WNW 7 9 4 5 1019.1 - 0.0
21/08:00am 7.7 4.2 1.5 65 2.5 WNW 9 11 5 6 1019.0 1019.0 0.0
21/07:30am 7.2 3.7 1.1 65 2.4 WNW 9 13 5 7 1018.7 - 0.0
21/07:00am 6.4 2.4 0.5 66 2.3 WNW 11 13 6 7 1018.4 1018.4 0.0
21/06:30am 6.1 2.1 0.4 67 2.2 WNW 11 13 6 7 1018.1 - 0.0
21/06:00am 6.3 2.3 0.6 67 2.2 WNW 11 13 6 7 1017.9 1017.9 0.0
21/05:30am 5.8 1.9 1.2 72 1.8 WNW 11 13 6 7 1017.6 - 0.0
21/05:00am 5.9 2.0 1.4 73 1.8 W 11 15 6 8 1017.5 1017.5 0.0
21/04:30am 6.2 2.4 1.7 73 1.8 W 11 15 6 8 1017.1 - 0.0
21/04:00am 6.5 3.0 1.4 70 2.0 WNW 9 13 5 7 1016.9 1016.9 0.0
21/03:30am 6.5 3.7 2.2 74 1.8 W 6 9 3 5 1016.6 - 0.0
21/03:00am 6.7 3.0 2.4 74 1.8 WSW 11 15 6 8 1016.3 1016.3 0.0
21/02:30am 7.0 3.8 3.1 76 1.6 W 9 15 5 8 1016.3 - 0.0
21/02:00am 7.8 4.2 2.9 71 2.1 W 11 19 6 10 1016.3 1016.3 0.0
21/01:30am 7.8 4.3 3.7 75 1.8 W 11 15 6 8 1016.1 - 0.0
21/01:00am 8.3 4.5 4.1 75 1.8 W 13 19 7 10 1015.8 1015.8 0.0
21/12:30am 8.7 5.3 4.1 73 2.0 W 11 19 6 10 1015.5 - 0.0
21/12:00am 8.8 5.0 3.8 71 2.2 WSW 13 20 7 11 1015.3 1015.3 0.0
 
Date/Time
EST
Temp
°C
App
Temp
°C
Dew
Point
Rel
Hum
%
Delta-T
°C
Wind Press
QNH
hPa
Press
MSL
hPa
Rain
since 9 am
mm
Dir
 
Spd
km/h
Gust
km/h
Spd
kts
Gust
kts
20/11:30pm 8.9 6.0 4.9 76 1.8 W 9 13 5 7 1015.2 - 0.0
20/11:00pm 9.3 6.4 4.9 74 2.0 W 9 13 5 7 1015.0 1015.0 0.0
20/10:30pm 9.5 7.1 5.3 75 1.9 W 7 11 4 6 1014.8 - 0.0
20/10:00pm 10.0 7.9 6.7 80 1.5 W 7 9 4 5 1014.5 1014.5 0.0
20/09:30pm 11.1 8.4 7.2 77 1.9 WSW 11 19 6 10 1014.1 - 0.0
20/09:00pm 11.5 9.2 8.9 84 1.3 W 11 15 6 8 1013.5 1013.5 0.0
20/08:30pm 12.0 9.4 9.2 83 1.4 WSW 13 19 7 10 1013.0 - 0.0
20/08:00pm 12.1 9.2 9.7 85 1.2 SW 15 24 8 13 1012.3 1012.3 0.0

Other Formats:

Comma delimited format used in spreadsheet applications
http://www.bom.gov.au/fwo/IDT60801/IDT60801.94987.axf

JavaScript Object Notation format (JSON) in row-major order
http://www.bom.gov.au/fwo/IDT60801/IDT60801.94987.json